Grindrod, Canada
Current Conditions -  °F | °C
As of 1:00 AM on Sunday 26 Oct 2014 (Local Time) from CYRV Reporting Station
Moderate Rain Moderate Rain  
Wind Chill: 41°   Ceiling: 600
Heat Index: 41°   Visibility: 6mi
Dew Point: 41°   Wind: 0mph
Humidity: 100%   Direction: NA
Pressure: 29.48"   Gusts: NA
Location:  50.63°N, 119.12°W
Report Text: CYRV 260800Z AUTO 00000KT 6SM RA BR OVC006 05/05 A2948 RMK PCPN 1.5MM PAST HR SLP991
Loading
Personal Weather Stations






























Interactive Weather Map
Tropical Storm Tracking
New forecast layout! Learn more

10-Day Weather Forecast

Advertisements
Track Severe Weather on mobile